Flight Track Log - Related Links

Times and Time Zones

All times are in EDT time to prevent confusion due to time zone crossing. See the N1259W flight status page for this flight to view local times or setup timezone preferences in your user account.

Time Position Orientation Groundspeed Altitude Reporting Facility
EDT Latitude Longitude Course Direction KTS MPH feet Rate Location/Type
Sat 06:12:11 PM 18.4667 -67.0667 109° East 170 196 1,900  Level San Juan Center
Sat 06:13:12 PM 18.4500 -67.0167 109° East 140 161 3,700 1,686 Climbing San Juan Center
Sat 06:14:12 PM 18.4333 -66.9833 118° Southeast 140 161 5,300 1,550 Climbing San Juan Center
Sat 06:15:12 PM 18.4167 -66.9500 118° Southeast 160 184 6,800 1,438 Climbing San Juan Center
Sat 06:16:13 PM 18.4000 -66.9167 118° Southeast 150 173 8,200 1,438 Climbing San Juan Center
Sat 06:17:13 PM 18.3667 -66.8833 136° Southeast 160 184 9,700 1,300 Climbing San Juan Center
Sat 06:18:13 PM 18.3333 -66.8667 155° Southeast 190 219 10,800 1,140 Climbing San Juan Center
Sat 06:19:14 PM 18.3000 -66.8333 136° Southeast 170 196 12,000 1,190 Climbing San Juan Center
Sat 06:20:14 PM 18.2500 -66.8000 148° Southeast 170 196 13,200 1,250 Climbing San Juan Center
Sat 06:21:14 PM 18.2167 -66.7667 136° Southeast 170 196 14,500 1,140 Climbing San Juan Center
Sat 06:22:15 PM 18.1833 -66.7333 136° Southeast 180 207 15,500 992 Climbing San Juan Center
Sat 06:23:15 PM 18.1333 -66.7000 148° Southeast 200 230 16,500 1,100 Climbing San Juan Center
Sat 06:24:15 PM 18.1000 -66.6667 136° Southeast 180 207 17,700 1,041 Climbing San Juan Center
Sat 06:25:16 PM 18.0667 -66.6333 136° Southeast 180 207 18,600 893 Climbing San Juan Center
Sat 06:26:16 PM 18.0167 -66.6000 148° Southeast 190 219 19,500 850 Climbing San Juan Center
Sat 06:27:16 PM 17.9833 -66.5667 136° Southeast 180 207 20,300 750 Climbing San Juan Center
Sat 06:28:16 PM 17.9333 -66.5333 148° Southeast 190 219 21,000 793 Climbing San Juan Center
Sat 06:29:17 PM 17.9000 -66.5000 136° Southeast 190 219 21,900 843 Climbing San Juan Center
Sat 06:30:17 PM 17.8500 -66.4667 148° Southeast 190 219 22,700 850 Climbing San Juan Center
Sat 06:31:17 PM 17.8167 -66.4333 136° Southeast 200 230 23,600 850 Climbing San Juan Center
Sat 06:32:17 PM 17.7667 -66.4000 148° Southeast 200 230 24,400 800 Climbing San Juan Center
Sat 06:33:17 PM 17.7167 -66.3500 136° Southeast 200 230 25,200 793 Climbing San Juan Center
Sat 06:34:18 PM 17.6833 -66.3167 136° Southeast 210 242 26,000 893 Climbing San Juan Center
Sat 06:35:18 PM 17.6333 -66.2833 148° Southeast 190 219 27,000 500 Climbing San Juan Center
Sat 06:36:18 PM 17.6000 -66.2500 136° Southeast 210 242 27,000  Level San Juan Center
Sat 06:37:19 PM 17.5333 -66.2000 144° Southeast 230 265 27,000  Level San Juan Center
Sat 06:38:19 PM 17.4667 -66.1500 144° Southeast 250 288 27,000  Level San Juan Center
Sat 06:39:19 PM 17.4167 -66.1000 136° Southeast 260 299 27,000  Level San Juan Center
Sat 06:40:20 PM 17.3667 -66.0500 136° Southeast 270 311 27,000  Level San Juan Center
Sat 06:41:20 PM 17.3000 -66.0000 144° Southeast 260 299 27,000  Level San Juan Center
Sat 06:42:20 PM 17.2500 -65.9500 136° Southeast 270 311 27,000  Level San Juan Center
Sat 06:43:21 PM 17.1833 -65.9000 144° Southeast 260 299 27,000  Level San Juan Center
Sat 06:44:21 PM 17.1333 -65.8667 147° Southeast 270 311 27,000  Level San Juan Center
Sat 06:45:21 PM 17.0667 -65.8167 144° Southeast 270 311 27,000  Level San Juan Center
Sat 06:46:22 PM 17.0167 -65.7667 136° Southeast 260 299 27,000  Level San Juan Center
Sat 06:47:22 PM 16.9500 -65.7167 144° Southeast 270 311 27,000  Level San Juan Center
Sat 06:48:22 PM 16.9000 -65.6667 136° Southeast 260 299 27,000  Level San Juan Center
Sat 06:49:23 PM 16.8333 -65.6167 144° Southeast 260 299 27,000  Level San Juan Center
Sat 06:50:23 PM 16.7833 -65.5667 136° Southeast 260 299 27,000  Level San Juan Center
Sat 06:51:23 PM 16.7167 -65.5167 144° Southeast 260 299 27,000  Level San Juan Center
Sat 06:52:24 PM 16.6667 -65.4833 147° Southeast 270 311 27,000  Level San Juan Center
Sat 06:53:24 PM 16.6000 -65.4333 144° Southeast 260 299 27,000  Level San Juan Center
Sat 06:54:24 PM 16.5500 -65.3833 136° Southeast 270 311 27,000  Level San Juan Center
Sat 06:55:24 PM 16.4833 -65.3333 144° Southeast 270 311 27,000  Level San Juan Center
Sat 06:56:24 PM 16.4333 -65.2833 136° Southeast 260 299 27,000  Level San Juan Center
Sat 06:57:25 PM 16.3667 -65.2333 144° Southeast 270 311 27,000  Level San Juan Center
Sat 06:58:25 PM 16.3167 -65.1833 136° Southeast 260 299 27,000  Level San Juan Center
Sat 06:59:25 PM 16.2500 -65.1500 154° Southeast 270 311 27,000  Level San Juan Center
Sat 07:00:26 PM 16.1833 -65.1167 154° Southeast 260 299 27,000  Level San Juan Center
Sat 07:01:26 PM 16.1333 -65.0667 136° Southeast 270 311 27,000  Level San Juan Center
Sat 07:02:26 PM 16.0667 -65.0167 144° Southeast 270 311 27,000  Level San Juan Center
Sat 07:03:27 PM 16.0167 -64.9667 136° Southeast 270 311 27,000  Level San Juan Center
Sat 07:04:27 PM 15.9500 -64.9167 144° Southeast 270 311 27,000  Level San Juan Center
Sat 07:05:27 PM 15.9000 -64.8667 136° Southeast 270 311 27,000  Level San Juan Center
Sat 07:06:28 PM 15.8500 -64.8167 136° Southeast 280 322 27,000  Level San Juan Center
Sat 07:07:28 PM 15.7833 -64.7667 144° Southeast 280 322 27,000  Level San Juan Center
Sat 07:08:28 PM 15.7333 -64.7167 136° Southeast 270 311 27,000  Level San Juan Center
Sat 07:09:29 PM 15.6667 -64.6667 144° Southeast 260 299 27,000  Level San Juan Center
Sat 07:10:29 PM 15.6000 -64.6167 144° Southeast 270 311 27,000  Level San Juan Center
Sat 07:11:29 PM 15.5500 -64.5667 136° Southeast 270 311 27,000  Level San Juan Center
Sat 07:12:30 PM 15.4833 -64.5167 144° Southeast 260 299 27,000  Level San Juan Center
Sat 07:13:30 PM 15.4333 -64.4667 136° Southeast 270 311 27,000  Level San Juan Center
Sat 07:14:30 PM 15.3667 -64.4333 154° Southeast 270 311 27,000  Level San Juan Center
Sat 07:15:30 PM 15.3167 -64.3833 136° Southeast 270 311 27,000  Level San Juan Center
Sat 07:16:31 PM 15.2500 -64.3333 144° Southeast 280 322 27,000  Level San Juan Center
Sat 07:17:31 PM 15.1833 -64.2833 144° Southeast 270 311 27,000  Level San Juan Center
Sat 07:19:00 PM 15.1023 -64.2124 140° Southeast  Level FlightAware Approximate
Sat 07:26:00 PM 14.6778 -63.9369 149° Southeast  Level FlightAware Approximate
Sat 07:27:00 PM 14.6161 -63.8994 150° Southeast  Level FlightAware Approximate
Sat 07:28:00 PM 14.5544 -63.8619 150° Southeast  Level FlightAware Approximate
Sat 07:29:00 PM 14.4928 -63.8244 150° Southeast  Level FlightAware Approximate
Sat 07:30:00 PM 14.4311 -63.7870 150° Southeast  Level FlightAware Approximate
Sat 07:31:00 PM 14.3694 -63.7496 150° Southeast  Level FlightAware Approximate
Sat 07:32:00 PM 14.3076 -63.7121 150° Southeast  Level FlightAware Approximate
Sat 07:33:00 PM 14.2459 -63.6748 150° Southeast  Level FlightAware Approximate
Sat 07:34:00 PM 14.1842 -63.6374 150° Southeast  Level FlightAware Approximate
Sat 07:35:00 PM 14.1226 -63.5999 149° Southeast  Level FlightAware Approximate
Sat 07:36:00 PM 14.0610 -63.5623 149° Southeast  Level FlightAware Approximate
Sat 07:37:00 PM 13.9994 -63.5247 149° Southeast  Level FlightAware Approximate
Sat 07:38:00 PM 13.9378 -63.4872 149° Southeast  Level FlightAware Approximate
Sat 07:39:00 PM 13.8762 -63.4496 149° Southeast  Level FlightAware Approximate
Sat 07:40:00 PM 13.8146 -63.4121 149° Southeast  Level FlightAware Approximate
Sat 07:41:00 PM 13.7530 -63.3746 149° Southeast  Level FlightAware Approximate
Sat 07:42:00 PM 13.6914 -63.3371 149° Southeast  Level FlightAware Approximate
Sat 07:43:00 PM 13.6298 -63.2996 149° Southeast  Level FlightAware Approximate
Sat 07:44:00 PM 13.5682 -63.2622 149° Southeast  Level FlightAware Approximate
Sat 07:45:00 PM 13.5066 -63.2248 149° Southeast  Level FlightAware Approximate
Sat 07:46:00 PM 13.4449 -63.1874 149° Southeast  Level FlightAware Approximate
Sat 07:47:00 PM 13.3833 -63.1500 149° Southeast  Level FlightAware Approximate
Sat 07:48:00 PM 13.3222 -63.1117 149° Southeast  Level FlightAware Approximate
Sat 07:49:00 PM 13.2610 -63.0735 149° Southeast  Level FlightAware Approximate
Sat 07:50:00 PM 13.2079 -63.0246 136° Southeast  Level FlightAware Approximate
Sat 07:51:00 PM 13.1567 -62.9733 136° Southeast  Level FlightAware Approximate
Sat 07:52:00 PM 13.1054 -62.9220 136° Southeast  Level FlightAware Approximate
Sat 07:53:00 PM 13.0542 -62.8708 136° Southeast  Level FlightAware Approximate
Sat 07:54:00 PM 13.0029 -62.8195 136° Southeast  Level FlightAware Approximate
Sat 07:55:00 PM 12.9528 -62.7671 134° Southeast  Level FlightAware Approximate
Sat 07:56:00 PM 12.9035 -62.7139 134° Southeast  Level FlightAware Approximate
Sat 07:57:00 PM 12.8541 -62.6608 134° Southeast  Level FlightAware Approximate
Sat 07:58:00 PM 12.8047 -62.6076 134° Southeast  Level FlightAware Approximate
Sat 07:59:00 PM 12.7554 -62.5545 133° Southeast  Level FlightAware Approximate
Sat 08:00:00 PM 12.7062 -62.5011 133° Southeast  Level FlightAware Approximate
Sat 08:01:00 PM 12.6571 -62.4478 133° Southeast  Level FlightAware Approximate
Sat 08:02:00 PM 12.6079 -62.3946 133° Southeast  Level FlightAware Approximate
Sat 08:03:00 PM 12.5583 -62.3417 136° Southeast  Level FlightAware Approximate
Sat 08:04:00 PM 12.5071 -62.2904 136° Southeast  Level FlightAware Approximate
Sat 08:05:00 PM 12.4559 -62.2392 136° Southeast  Level FlightAware Approximate
Sat 08:06:00 PM 12.4001 -62.1934 142° Southeast  Level FlightAware Approximate
Sat 08:07:00 PM 12.3458 -62.1458 136° Southeast  Level FlightAware Approximate
Sat 08:08:00 PM 12.2947 -62.0947 136° Southeast  Level FlightAware Approximate
Sat 08:09:00 PM 12.2466 -62.0404 131° Southeast  Level FlightAware Approximate
Sat 08:10:00 PM 12.1994 -61.9854 131° Southeast  Level FlightAware Approximate
Sat 08:11:00 PM 12.1481 -61.9419 127° Southeast  Level FlightAware Approximate
Sat 08:12:00 PM 12.1024 -61.8857 136° Southeast  Level FlightAware Approximate
Sat 08:13:00 PM 12.0512 -61.8345 136° Southeast  Level FlightAware Approximate
Sat 08:14:00 PM 12.0001 -61.7834 136° Southeast  Level FlightAware Approximate
Sat 08:15:00 PM 12.0042 -61.7862 136° Southeast  Level Estimated
Sat 08:16:00 PM 12.0000 -61.7833 136° Southeast  Level FlightAware Approximate
Sat 08:17:00 PM 12.0042 -61.7862 136° Southeast  Level Estimated
Sat 08:18:00 PM 12.0000 -61.7833 136° Southeast  Level FlightAware Approximate
Sat 08:19:00 PM 12.0042 -61.7862 136° Southeast  Level Estimated
Sat 08:20:00 PM 12.0000 -61.7833 136° Southeast  Level FlightAware Approximate
Sat 08:21:00 PM 12.0042 -61.7862 136° Southeast  Level Estimated
Sat 08:22:00 PM 12.0000 -61.7833 136° Southeast  Level FlightAware Approximate
Sat 08:23:00 PM 12.0042 -61.7862 136° Southeast  Level Estimated
Sat 08:24:00 PM 12.0000 -61.7833 136° Southeast  Level FlightAware Approximate
Sat 08:25:00 PM 12.0042 -61.7862 136° Southeast  Level Estimated
Sat 08:26:00 PM 12.0000 -61.7833 136° Southeast  Level FlightAware Approximate
Sat 08:27:00 PM 12.0042 -61.7862 136° Southeast  Level Estimated

Login

Don't have an account? Register now (free) for customized features, flight alerts, and more!